Aviation Digital Data Service (ADDS)

Output produced by METARs form (2140 UTC 07 February 2016)
found at http://www.aviationweather.gov/adds/metars/
 
KDUJ 072053Z AUTO VRB03KT 10SM CLR 07/M05 A2991 RMK AO2 SLP145 T00671050 56027
KDUJ 071953Z AUTO 24006KT 10SM CLR 07/M05 A2994 RMK AO2 SLP152 T00671050
KDUJ 071853Z AUTO 22006KT 10SM CLR 06/M06 A2996 RMK AO2 SLP160 T00561056
KDUJ 071753Z AUTO 24006KT 10SM CLR 06/M06 A3000 RMK AO2 SLP174 T00561056 10061 21061 58023
KDUJ 071653Z AUTO 22008KT 10SM CLR 04/M06 A3004 RMK AO2 SLP187 T00441056
KDUJ 071553Z AUTO 24009KT 10SM CLR 03/M06 A3005 RMK AO2 SLP193 T00281056
KDUJ 071453Z AUTO 22004KT 10SM CLR 01/M07 A3007 RMK AO2 SLP201 T00061072 50001
KDUJ 071353Z AUTO 18004KT 10SM CLR M02/M09 A3008 RMK AO2 SLP207 T10171089
KDUJ 071253Z AUTO 17003KT 10SM CLR M04/M11 A3008 RMK AO2 SLP206 T10391106
KDUJ 071153Z AUTO 19003KT 10SM CLR M04/M11 A3007 RMK AO2 SLP203 T10441106 11028 21050 56014
KDUJ 071053Z AUTO 25003KT 10SM CLR M03/M11 A3008 RMK AO2 SLP204 T10331106
KDUJ 070953Z AUTO 00000KT 10SM CLR M04/M11 A3010 RMK AO2 SLP210 T10391111
KDUJ 070853Z AUTO 22003KT 10SM CLR M03/M11 A3011 RMK AO2 SLP214 T10331106 58004
KDUJ 070753Z AUTO 23005KT 10SM CLR M03/M11 A3012 RMK AO2 SLP215 T10331106
KDUJ 070653Z AUTO 24005KT 10SM CLR M03/M11 A3012 RMK AO2 SLP216 T10281106
KDUJ 070553Z AUTO 25007KT 10SM CLR M03/M10 A3012 RMK AO2 SLP219 T10281100 10000 21033 56010
KDUJ 070453Z AUTO 22003KT 10SM CLR M02/M10 A3014 RMK AO2 SLP223 T10221100 400391061
KDUJ 070353Z AUTO 23005KT 10SM CLR M02/M10 A3014 RMK AO2 SLP227 T10171100
KDUJ 070253Z AUTO 23006KT 10SM CLR M02/M09 A3016 RMK AO2 SLP232 T10171094 58001
KDUJ 070153Z AUTO 22007KT 10SM CLR M02/M09 A3016 RMK AO2 SLP235 T10171089
KDUJ 070053Z AUTO 21004KT 10SM CLR M01/M09 A3016 RMK AO2 SLP234 T10061094
KDUJ 062353Z AUTO 00000KT 10SM CLR 00/M09 A3016 RMK AO2 SLP233 T00001094 10039 20000 53004
KDUJ 062253Z AUTO 24004KT 10SM CLR 01/M09 A3016 RMK AO2 SLP232 T00061094
KDUJ 062153Z AUTO 24008KT 10SM CLR 03/M09 A3014 RMK AO2 SLP225 T00281089
KDUJ 062053Z AUTO 26010KT 10SM CLR 03/M09 A3015 RMK AO2 SLP226 T00331089 56013
KDUJ 061953Z AUTO 25011KT 10SM CLR 04/M08 A3015 RMK AO2 SLP229 T00391083
KDUJ 061853Z AUTO 25012G19KT 10SM BKN042 04/M07 A3016 RMK AO2 SLP232 T00391072
KDUJ 061753Z AUTO 26014G21KT 10SM CLR 03/M08 A3019 RMK AO2 SLP243 T00281078 10033 21028 58019
KDUJ 061653Z AUTO 26015G22KT 10SM FEW048 02/M08 A3022 RMK AO2 SLP253 T00221078
KDUJ 061553Z AUTO 24011G18KT 10SM BKN050 01/M08 A3024 RMK AO2 SLP261 T00061083
KDUJ 061453Z AUTO 22011KT 10SM BKN055 M01/M09 A3025 RMK AO2 SLP265 T10061089 50001
KDUJ 061353Z AUTO 22008KT 10SM OVC055 M02/M09 A3025 RMK AO2 SLP268 T10221089
KDUJ 061253Z AUTO 22008KT 10SM OVC055 M03/M09 A3025 RMK AO2 SLP267 T10281094
KDUJ 061153Z AUTO 21005KT 10SM OVC060 M03/M09 A3024 RMK AO2 SLP265 T10281094 11028 21061 55000
KDUJ 061053Z AUTO 22007KT 10SM OVC060 M03/M09 A3024 RMK AO2 SLP263 T10281089
KDUJ 060953Z AUTO 21007KT 10SM OVC055 M03/M09 A3024 RMK AO2 SLP263 T10281094